sensor_id;sensor_type;location;lat;lon;timestamp;temperature;humidity
23869;DHT22;12115;47.128;15.422;2022-08-01T00:00:14;18.50;99.90
23869;DHT22;12115;47.128;15.422;2022-08-01T00:02:41;18.50;99.90
23869;DHT22;12115;47.128;15.422;2022-08-01T00:05:09;18.40;99.90
23869;DHT22;12115;47.128;15.422;2022-08-01T00:07:38;18.50;99.90
23869;DHT22;12115;47.128;15.422;2022-08-01T00:10:09;18.50;99.90
23869;DHT22;12115;47.128;15.422;2022-08-01T00:12:36;18.40;99.90
23869;DHT22;12115;47.128;15.422;2022-08-01T00:15:04;18.40;99.90
23869;DHT22;12115;47.128;15.422;2022-08-01T00:17:32;18.40;99.90
23869;DHT22;12115;47.128;15.422;2022-08-01T00:19:59;18.30;99.90
23869;DHT22;12115;47.128;15.422;2022-08-01T00:22:26;18.30;99.90
23869;DHT22;12115;47.128;15.422;2022-08-01T00:24:53;18.10;99.90
23869;DHT22;12115;47.128;15.422;2022-08-01T00:27:20;18.20;99.90
23869;DHT22;12115;47.128;15.422;2022-08-01T00:29:47;18.10;99.90
23869;DHT22;12115;47.128;15.422;2022-08-01T00:32:34;18.10;99.90
23869;DHT22;12115;47.128;15.422;2022-08-01T00:35:01;18.20;99.90
23869;DHT22;12115;47.128;15.422;2022-08-01T00:37:28;18.10;99.90
23869;DHT22;12115;47.128;15.422;2022-08-01T00:39:55;18.10;99.90
23869;DHT22;12115;47.128;15.422;2022-08-01T00:42:22;18.00;99.90
23869;DHT22;12115;47.128;15.422;2022-08-01T00:44:49;18.00;99.90
23869;DHT22;12115;47.128;15.422;2022-08-01T00:47:16;18.00;99.90
23869;DHT22;12115;47.128;15.422;2022-08-01T00:49:44;17.80;99.90
23869;DHT22;12115;47.128;15.422;2022-08-01T00:52:11;17.80;99.90
23869;DHT22;12115;47.128;15.422;2022-08-01T00:54:38;17.80;99.90
23869;DHT22;12115;47.128;15.422;2022-08-01T00:57:06;17.80;99.90
23869;DHT22;12115;47.128;15.422;2022-08-01T00:59:36;17.80;99.90
23869;DHT22;12115;47.128;15.422;2022-08-01T01:02:07;17.80;99.90
23869;DHT22;12115;47.128;15.422;2022-08-01T01:04:44;17.70;99.90
23869;DHT22;12115;47.128;15.422;2022-08-01T01:07:15;17.60;99.90
23869;DHT22;12115;47.128;15.422;2022-08-01T01:09:55;17.60;99.90
23869;DHT22;12115;47.128;15.422;2022-08-01T01:12:31;17.50;99.90
23869;DHT22;12115;47.128;15.422;2022-08-01T01:15:13;17.50;99.90
23869;DHT22;12115;47.128;15.422;2022-08-01T01:18:00;17.40;99.90
23869;DHT22;12115;47.128;15.422;2022-08-01T01:20:35;17.40;99.90
23869;DHT22;12115;47.128;15.422;2022-08-01T01:23:34;17.30;99.90
23869;DHT22;12115;47.128;15.422;2022-08-01T01:31:43;17.30;99.90
23869;DHT22;12115;47.128;15.422;2022-08-01T01:34:12;17.30;99.90
23869;DHT22;12115;47.128;15.422;2022-08-01T01:36:40;17.30;99.90
23869;DHT22;12115;47.128;15.422;2022-08-01T01:39:08;17.30;99.90
23869;DHT22;12115;47.128;15.422;2022-08-01T01:41:36;17.30;99.90
23869;DHT22;12115;47.128;15.422;2022-08-01T01:44:05;17.30;99.90
23869;DHT22;12115;47.128;15.422;2022-08-01T01:46:33;17.20;99.90
23869;DHT22;12115;47.128;15.422;2022-08-01T01:49:02;17.10;99.90
23869;DHT22;12115;47.128;15.422;2022-08-01T01:51:30;17.10;99.90
23869;DHT22;12115;47.128;15.422;2022-08-01T01:53:59;17.10;99.90
23869;DHT22;12115;47.128;15.422;2022-08-01T01:56:29;17.10;99.90
23869;DHT22;12115;47.128;15.422;2022-08-01T01:59:00;17.00;99.90
23869;DHT22;12115;47.128;15.422;2022-08-01T02:01:29;17.00;99.90
23869;DHT22;12115;47.128;15.422;2022-08-01T02:04:18;16.90;99.90
23869;DHT22;12115;47.128;15.422;2022-08-01T02:06:47;16.90;99.90
23869;DHT22;12115;47.128;15.422;2022-08-01T02:09:20;16.90;99.90
23869;DHT22;12115;47.128;15.422;2022-08-01T02:11:49;16.90;99.90
23869;DHT22;12115;47.128;15.422;2022-08-01T02:14:34;16.90;99.90
23869;DHT22;12115;47.128;15.422;2022-08-01T02:17:04;16.90;99.90
23869;DHT22;12115;47.128;15.422;2022-08-01T02:19:35;16.90;99.90
23869;DHT22;12115;47.128;15.422;2022-08-01T02:22:55;16.80;99.90
23869;DHT22;12115;47.128;15.422;2022-08-01T02:25:09;16.80;99.90
23869;DHT22;12115;47.128;15.422;2022-08-01T02:27:43;16.80;99.90
23869;DHT22;12115;47.128;15.422;2022-08-01T02:30:13;16.90;99.90
23869;DHT22;12115;47.128;15.422;2022-08-01T02:32:50;16.90;99.90
23869;DHT22;12115;47.128;15.422;2022-08-01T02:35:24;17.00;99.90
23869;DHT22;12115;47.128;15.422;2022-08-01T02:37:55;17.00;99.90
23869;DHT22;12115;47.128;15.422;2022-08-01T02:40:24;17.00;99.90
23869;DHT22;12115;47.128;15.422;2022-08-01T02:42:54;16.90;99.90
23869;DHT22;12115;47.128;15.422;2022-08-01T02:45:25;16.80;99.90
23869;DHT22;12115;47.128;15.422;2022-08-01T02:47:57;16.80;99.90
23869;DHT22;12115;47.128;15.422;2022-08-01T02:50:26;16.80;99.90
23869;DHT22;12115;47.128;15.422;2022-08-01T02:52:55;16.70;99.90
23869;DHT22;12115;47.128;15.422;2022-08-01T02:55:24;16.70;99.90
23869;DHT22;12115;47.128;15.422;2022-08-01T02:57:53;16.70;99.90
23869;DHT22;12115;47.128;15.422;2022-08-01T03:00:28;16.70;99.90
23869;DHT22;12115;47.128;15.422;2022-08-01T03:02:57;16.80;99.90
23869;DHT22;12115;47.128;15.422;2022-08-01T03:05:26;16.80;99.90
23869;DHT22;12115;47.128;15.422;2022-08-01T03:07:55;16.80;99.90
23869;DHT22;12115;47.128;15.422;2022-08-01T03:10:30;16.80;99.90
23869;DHT22;12115;47.128;15.422;2022-08-01T03:13:00;16.70;99.90
23869;DHT22;12115;47.128;15.422;2022-08-01T03:15:31;16.60;99.90
23869;DHT22;12115;47.128;15.422;2022-08-01T03:17:59;16.60;99.90
23869;DHT22;12115;47.128;15.422;2022-08-01T03:20:28;16.60;99.90
23869;DHT22;12115;47.128;15.422;2022-08-01T03:22:57;16.50;99.90
23869;DHT22;12115;47.128;15.422;2022-08-01T03:25:26;16.50;99.90
23869;DHT22;12115;47.128;15.422;2022-08-01T03:28:01;16.40;99.90
23869;DHT22;12115;47.128;15.422;2022-08-01T03:30:29;16.40;99.90
23869;DHT22;12115;47.128;15.422;2022-08-01T03:32:58;16.50;99.90
23869;DHT22;12115;47.128;15.422;2022-08-01T03:35:47;16.40;99.90
23869;DHT22;12115;47.128;15.422;2022-08-01T03:38:19;16.40;99.90
23869;DHT22;12115;47.128;15.422;2022-08-01T03:40:52;16.40;99.90
23869;DHT22;12115;47.128;15.422;2022-08-01T03:43:32;16.50;99.90
23869;DHT22;12115;47.128;15.422;2022-08-01T03:46:05;16.50;99.90
23869;DHT22;12115;47.128;15.422;2022-08-01T03:48:39;16.50;99.90
23869;DHT22;12115;47.128;15.422;2022-08-01T03:51:08;16.40;99.90
23869;DHT22;12115;47.128;15.422;2022-08-01T03:53:36;16.30;99.90
23869;DHT22;12115;47.128;15.422;2022-08-01T03:56:08;16.30;99.90
23869;DHT22;12115;47.128;15.422;2022-08-01T03:58:39;16.40;99.90
23869;DHT22;12115;47.128;15.422;2022-08-01T04:01:07;16.30;99.90
23869;DHT22;12115;47.128;15.422;2022-08-01T04:03:42;16.30;99.90
23869;DHT22;12115;47.128;15.422;2022-08-01T04:06:10;16.30;99.90
23869;DHT22;12115;47.128;15.422;2022-08-01T04:08:38;16.20;99.90
23869;DHT22;12115;47.128;15.422;2022-08-01T04:11:08;16.20;99.90
23869;DHT22;12115;47.128;15.422;2022-08-01T04:13:35;16.30;99.90
23869;DHT22;12115;47.128;15.422;2022-08-01T04:16:04;16.30;99.90
23869;DHT22;12115;47.128;15.422;2022-08-01T04:18:31;16.30;99.90
23869;DHT22;12115;47.128;15.422;2022-08-01T04:20:58;16.30;99.90
23869;DHT22;12115;47.128;15.422;2022-08-01T04:23:30;16.40;99.90
23869;DHT22;12115;47.128;15.422;2022-08-01T04:26:00;16.30;99.90
23869;DHT22;12115;47.128;15.422;2022-08-01T04:28:32;16.30;99.90
23869;DHT22;12115;47.128;15.422;2022-08-01T04:31:02;16.40;99.90
23869;DHT22;12115;47.128;15.422;2022-08-01T04:33:33;16.30;99.90
23869;DHT22;12115;47.128;15.422;2022-08-01T04:36:04;16.30;99.90
23869;DHT22;12115;47.128;15.422;2022-08-01T04:38:34;16.20;99.90
23869;DHT22;12115;47.128;15.422;2022-08-01T04:41:06;16.20;99.90
23869;DHT22;12115;47.128;15.422;2022-08-01T04:43:38;16.30;99.90
23869;DHT22;12115;47.128;15.422;2022-08-01T04:46:06;16.30;99.90
23869;DHT22;12115;47.128;15.422;2022-08-01T04:48:37;16.40;99.90
23869;DHT22;12115;47.128;15.422;2022-08-01T04:51:14;16.40;99.90
23869;DHT22;12115;47.128;15.422;2022-08-01T04:53:43;16.50;99.90
23869;DHT22;12115;47.128;15.422;2022-08-01T04:56:11;16.60;99.90
23869;DHT22;12115;47.128;15.422;2022-08-01T04:58:40;16.70;99.90
23869;DHT22;12115;47.128;15.422;2022-08-01T05:01:08;16.80;99.90
23869;DHT22;12115;47.128;15.422;2022-08-01T05:03:36;16.80;99.90
23869;DHT22;12115;47.128;15.422;2022-08-01T05:06:05;16.90;99.90
23869;DHT22;12115;47.128;15.422;2022-08-01T05:08:32;17.00;99.90
23869;DHT22;12115;47.128;15.422;2022-08-01T05:10:59;17.10;99.90
23869;DHT22;12115;47.128;15.422;2022-08-01T05:13:28;17.30;99.90
23869;DHT22;12115;47.128;15.422;2022-08-01T05:15:55;17.40;99.90
23869;DHT22;12115;47.128;15.422;2022-08-01T05:18:22;17.50;99.90
23869;DHT22;12115;47.128;15.422;2022-08-01T05:20:54;17.50;99.90
23869;DHT22;12115;47.128;15.422;2022-08-01T05:23:21;17.60;99.90
23869;DHT22;12115;47.128;15.422;2022-08-01T05:26:09;17.60;99.90
23869;DHT22;12115;47.128;15.422;2022-08-01T05:28:36;17.60;99.90
23869;DHT22;12115;47.128;15.422;2022-08-01T05:31:04;17.60;99.90
23869;DHT22;12115;47.128;15.422;2022-08-01T05:33:31;17.60;99.90
23869;DHT22;12115;47.128;15.422;2022-08-01T05:35:59;17.60;99.90
23869;DHT22;12115;47.128;15.422;2022-08-01T05:38:26;17.60;99.90
23869;DHT22;12115;47.128;15.422;2022-08-01T05:40:53;17.60;99.90
23869;DHT22;12115;47.128;15.422;2022-08-01T05:43:20;17.60;99.90
23869;DHT22;12115;47.128;15.422;2022-08-01T05:45:54;17.60;99.90
23869;DHT22;12115;47.128;15.422;2022-08-01T05:48:21;17.60;99.90
23869;DHT22;12115;47.128;15.422;2022-08-01T05:50:48;17.60;99.90
23869;DHT22;12115;47.128;15.422;2022-08-01T05:53:19;17.60;99.90
23869;DHT22;12115;47.128;15.422;2022-08-01T05:55:46;17.60;99.90
23869;DHT22;12115;47.128;15.422;2022-08-01T05:58:13;17.60;99.90
23869;DHT22;12115;47.128;15.422;2022-08-01T06:00:40;17.60;99.90
23869;DHT22;12115;47.128;15.422;2022-08-01T06:03:08;17.60;99.90
23869;DHT22;12115;47.128;15.422;2022-08-01T06:05:35;17.70;99.90
23869;DHT22;12115;47.128;15.422;2022-08-01T06:08:03;17.70;99.90
23869;DHT22;12115;47.128;15.422;2022-08-01T06:10:30;17.70;99.90
23869;DHT22;12115;47.128;15.422;2022-08-01T06:12:57;17.80;99.90
23869;DHT22;12115;47.128;15.422;2022-08-01T06:15:24;17.90;99.90
23869;DHT22;12115;47.128;15.422;2022-08-01T06:17:51;18.00;99.90
23869;DHT22;12115;47.128;15.422;2022-08-01T06:20:19;18.00;99.90
23869;DHT22;12115;47.128;15.422;2022-08-01T06:22:46;18.10;99.90
23869;DHT22;12115;47.128;15.422;2022-08-01T06:25:19;18.10;99.90
23869;DHT22;12115;47.128;15.422;2022-08-01T06:27:47;18.10;99.90
23869;DHT22;12115;47.128;15.422;2022-08-01T06:30:15;18.20;99.90
23869;DHT22;12115;47.128;15.422;2022-08-01T06:32:48;18.20;99.90
23869;DHT22;12115;47.128;15.422;2022-08-01T06:35:18;18.30;99.90
23869;DHT22;12115;47.128;15.422;2022-08-01T06:37:51;18.30;99.90
23869;DHT22;12115;47.128;15.422;2022-08-01T06:40:18;18.30;99.90
23869;DHT22;12115;47.128;15.422;2022-08-01T06:42:55;18.30;99.90
23869;DHT22;12115;47.128;15.422;2022-08-01T06:45:25;18.40;99.90
23869;DHT22;12115;47.128;15.422;2022-08-01T06:47:57;18.30;99.90
23869;DHT22;12115;47.128;15.422;2022-08-01T06:50:33;18.30;99.90
23869;DHT22;12115;47.128;15.422;2022-08-01T06:53:08;18.40;99.90
23869;DHT22;12115;47.128;15.422;2022-08-01T06:55:37;18.40;99.90
23869;DHT22;12115;47.128;15.422;2022-08-01T06:58:11;18.40;99.90
23869;DHT22;12115;47.128;15.422;2022-08-01T07:00:44;18.40;99.90
23869;DHT22;12115;47.128;15.422;2022-08-01T07:03:24;18.40;99.90
23869;DHT22;12115;47.128;15.422;2022-08-01T07:06:16;18.50;99.90
23869;DHT22;12115;47.128;15.422;2022-08-01T07:08:46;18.50;99.90
23869;DHT22;12115;47.128;15.422;2022-08-01T07:11:26;18.60;99.90
23869;DHT22;12115;47.128;15.422;2022-08-01T07:13:53;18.70;99.90
23869;DHT22;12115;47.128;15.422;2022-08-01T07:16:26;18.80;99.90
23869;DHT22;12115;47.128;15.422;2022-08-01T07:18:56;18.90;99.90
23869;DHT22;12115;47.128;15.422;2022-08-01T07:21:23;18.90;99.90
23869;DHT22;12115;47.128;15.422;2022-08-01T07:24:11;19.00;99.90
23869;DHT22;12115;47.128;15.422;2022-08-01T07:26:48;19.00;99.90
23869;DHT22;12115;47.128;15.422;2022-08-01T07:29:26;19.20;99.90
23869;DHT22;12115;47.128;15.422;2022-08-01T07:31:55;19.30;99.90
23869;DHT22;12115;47.128;15.422;2022-08-01T07:34:23;19.40;99.90
23869;DHT22;12115;47.128;15.422;2022-08-01T07:36:51;19.40;99.90
23869;DHT22;12115;47.128;15.422;2022-08-01T07:39:18;19.50;99.90
23869;DHT22;12115;47.128;15.422;2022-08-01T07:41:45;19.60;99.90
23869;DHT22;12115;47.128;15.422;2022-08-01T07:44:32;19.70;99.90
23869;DHT22;12115;47.128;15.422;2022-08-01T07:46:59;19.80;99.90
23869;DHT22;12115;47.128;15.422;2022-08-01T07:49:26;20.00;99.90
23869;DHT22;12115;47.128;15.422;2022-08-01T07:51:53;20.20;99.90
23869;DHT22;12115;47.128;15.422;2022-08-01T07:54:39;20.30;99.90
23869;DHT22;12115;47.128;15.422;2022-08-01T07:57:06;20.50;99.90
23869;DHT22;12115;47.128;15.422;2022-08-01T07:59:34;20.40;99.90
23869;DHT22;12115;47.128;15.422;2022-08-01T08:02:01;20.50;99.90
23869;DHT22;12115;47.128;15.422;2022-08-01T08:04:28;20.60;99.90
23869;DHT22;12115;47.128;15.422;2022-08-01T08:06:55;20.80;99.90
23869;DHT22;12115;47.128;15.422;2022-08-01T08:09:22;20.80;99.90
23869;DHT22;12115;47.128;15.422;2022-08-01T08:11:49;21.00;99.90
23869;DHT22;12115;47.128;15.422;2022-08-01T08:14:16;21.10;99.90
23869;DHT22;12115;47.128;15.422;2022-08-01T08:16:44;21.10;99.90
23869;DHT22;12115;47.128;15.422;2022-08-01T08:19:11;21.20;99.90
23869;DHT22;12115;47.128;15.422;2022-08-01T08:21:38;21.30;99.90
23869;DHT22;12115;47.128;15.422;2022-08-01T08:24:07;21.40;99.90
23869;DHT22;12115;47.128;15.422;2022-08-01T08:26:57;21.60;99.90
23869;DHT22;12115;47.128;15.422;2022-08-01T08:29:26;21.70;99.90
23869;DHT22;12115;47.128;15.422;2022-08-01T08:31:54;21.80;99.90
23869;DHT22;12115;47.128;15.422;2022-08-01T08:34:26;21.90;99.90
23869;DHT22;12115;47.128;15.422;2022-08-01T08:36:54;22.00;99.90
23869;DHT22;12115;47.128;15.422;2022-08-01T08:39:24;22.10;99.90
23869;DHT22;12115;47.128;15.422;2022-08-01T08:41:52;22.30;99.90
23869;DHT22;12115;47.128;15.422;2022-08-01T08:44:19;22.40;99.90
23869;DHT22;12115;47.128;15.422;2022-08-01T08:46:50;22.60;99.90
23869;DHT22;12115;47.128;15.422;2022-08-01T08:49:25;22.80;99.90
23869;DHT22;12115;47.128;15.422;2022-08-01T08:51:53;23.00;99.90
23869;DHT22;12115;47.128;15.422;2022-08-01T08:54:25;23.30;99.90
23869;DHT22;12115;47.128;15.422;2022-08-01T08:56:58;23.60;99.90
23869;DHT22;12115;47.128;15.422;2022-08-01T08:59:26;23.80;99.90
23869;DHT22;12115;47.128;15.422;2022-08-01T09:01:54;23.90;99.90
23869;DHT22;12115;47.128;15.422;2022-08-01T09:04:21;24.00;99.90
23869;DHT22;12115;47.128;15.422;2022-08-01T09:06:53;24.20;99.90
23869;DHT22;12115;47.128;15.422;2022-08-01T09:09:20;24.40;99.90
23869;DHT22;12115;47.128;15.422;2022-08-01T09:11:47;24.50;99.90
23869;DHT22;12115;47.128;15.422;2022-08-01T09:14:24;24.70;99.90
23869;DHT22;12115;47.128;15.422;2022-08-01T09:17:02;24.90;99.90
23869;DHT22;12115;47.128;15.422;2022-08-01T09:22:09;25.40;99.90
23869;DHT22;12115;47.128;15.422;2022-08-01T09:24:38;25.60;99.90
23869;DHT22;12115;47.128;15.422;2022-08-01T09:27:20;25.70;99.90
23869;DHT22;12115;47.128;15.422;2022-08-01T09:29:50;25.80;99.90
23869;DHT22;12115;47.128;15.422;2022-08-01T09:32:31;25.90;99.90
23869;DHT22;12115;47.128;15.422;2022-08-01T09:35:28;26.00;99.90
23869;DHT22;12115;47.128;15.422;2022-08-01T09:38:20;26.10;99.90
23869;DHT22;12115;47.128;15.422;2022-08-01T09:40:56;26.30;99.90
23869;DHT22;12115;47.128;15.422;2022-08-01T09:43:29;26.30;99.90
23869;DHT22;12115;47.128;15.422;2022-08-01T09:45:58;26.50;99.90
23869;DHT22;12115;47.128;15.422;2022-08-01T09:48:26;26.60;99.20
23869;DHT22;12115;47.128;15.422;2022-08-01T09:50:57;26.60;99.40
23869;DHT22;12115;47.128;15.422;2022-08-01T09:53:45;26.60;97.80
23869;DHT22;12115;47.128;15.422;2022-08-01T09:56:20;26.60;98.40
23869;DHT22;12115;47.128;15.422;2022-08-01T09:58:56;26.70;99.00
23869;DHT22;12115;47.128;15.422;2022-08-01T10:01:28;26.90;99.50
23869;DHT22;12115;47.128;15.422;2022-08-01T10:04:15;26.70;97.20
23869;DHT22;12115;47.128;15.422;2022-08-01T10:06:46;26.60;97.10
23869;DHT22;12115;47.128;15.422;2022-08-01T10:09:27;26.50;97.30
23869;DHT22;12115;47.128;15.422;2022-08-01T10:12:07;26.70;98.50
23869;DHT22;12115;47.128;15.422;2022-08-01T10:14:43;26.90;97.20
23869;DHT22;12115;47.128;15.422;2022-08-01T10:17:14;26.90;96.10
23869;DHT22;12115;47.128;15.422;2022-08-01T10:19:44;27.00;97.10
23869;DHT22;12115;47.128;15.422;2022-08-01T10:22:13;27.00;97.40
23869;DHT22;12115;47.128;15.422;2022-08-01T10:24:47;27.10;97.40
23869;DHT22;12115;47.128;15.422;2022-08-01T10:27:16;27.40;98.20
23869;DHT22;12115;47.128;15.422;2022-08-01T10:30:04;27.60;97.10
23869;DHT22;12115;47.128;15.422;2022-08-01T10:32:45;27.70;97.10
23869;DHT22;12115;47.128;15.422;2022-08-01T10:35:17;27.90;97.20
23869;DHT22;12115;47.128;15.422;2022-08-01T10:38:06;27.80;96.30
23869;DHT22;12115;47.128;15.422;2022-08-01T10:40:41;28.00;96.40
23869;DHT22;12115;47.128;15.422;2022-08-01T10:43:12;28.00;95.80
23869;DHT22;12115;47.128;15.422;2022-08-01T10:45:47;27.90;94.30
23869;DHT22;12115;47.128;15.422;2022-08-01T10:48:20;27.90;93.60
23869;DHT22;12115;47.128;15.422;2022-08-01T10:50:52;27.80;94.30
23869;DHT22;12115;47.128;15.422;2022-08-01T10:53:23;27.80;96.60
23869;DHT22;12115;47.128;15.422;2022-08-01T10:56:08;27.90;96.70
23869;DHT22;12115;47.128;15.422;2022-08-01T10:58:43;28.00;97.40
23869;DHT22;12115;47.128;15.422;2022-08-01T11:01:30;27.90;96.90
23869;DHT22;12115;47.128;15.422;2022-08-01T11:04:08;27.70;96.20
23869;DHT22;12115;47.128;15.422;2022-08-01T11:06:51;27.80;95.50
23869;DHT22;12115;47.128;15.422;2022-08-01T11:10:03;27.80;95.60
23869;DHT22;12115;47.128;15.422;2022-08-01T11:12:41;27.80;96.00
23869;DHT22;12115;47.128;15.422;2022-08-01T11:20:15;28.00;95.30
23869;DHT22;12115;47.128;15.422;2022-08-01T11:28:24;28.70;93.80
23869;DHT22;12115;47.128;15.422;2022-08-01T11:41:40;28.90;85.10
23869;DHT22;12115;47.128;15.422;2022-08-01T11:44:16;28.90;86.20
23869;DHT22;12115;47.128;15.422;2022-08-01T11:57:29;29.30;86.90
23869;DHT22;12115;47.128;15.422;2022-08-01T12:02:41;29.20;84.20
23869;DHT22;12115;47.128;15.422;2022-08-01T12:05:12;29.20;85.10
23869;DHT22;12115;47.128;15.422;2022-08-01T12:07:42;29.20;82.30
23869;DHT22;12115;47.128;15.422;2022-08-01T12:10:18;29.30;82.90
23869;DHT22;12115;47.128;15.422;2022-08-01T12:12:53;29.40;82.00
23869;DHT22;12115;47.128;15.422;2022-08-01T12:15:23;29.40;79.80
23869;DHT22;12115;47.128;15.422;2022-08-01T12:17:56;29.40;80.30
23869;DHT22;12115;47.128;15.422;2022-08-01T12:20:31;29.30;80.70
23869;DHT22;12115;47.128;15.422;2022-08-01T12:23:07;29.30;81.60
23869;DHT22;12115;47.128;15.422;2022-08-01T12:25:35;29.30;84.30
23869;DHT22;12115;47.128;15.422;2022-08-01T12:28:04;29.20;83.60
23869;DHT22;12115;47.128;15.422;2022-08-01T12:30:33;29.10;85.30
23869;DHT22;12115;47.128;15.422;2022-08-01T12:33:09;29.20;81.90
23869;DHT22;12115;47.128;15.422;2022-08-01T12:35:38;29.10;85.30
23869;DHT22;12115;47.128;15.422;2022-08-01T12:38:20;29.20;81.90
23869;DHT22;12115;47.128;15.422;2022-08-01T12:40:50;29.20;82.30
23869;DHT22;12115;47.128;15.422;2022-08-01T12:43:20;29.20;81.60
23869;DHT22;12115;47.128;15.422;2022-08-01T12:45:56;29.10;81.00
23869;DHT22;12115;47.128;15.422;2022-08-01T12:48:25;29.20;80.50
23869;DHT22;12115;47.128;15.422;2022-08-01T12:50:53;29.20;81.40
23869;DHT22;12115;47.128;15.422;2022-08-01T12:53:20;29.30;83.60
23869;DHT22;12115;47.128;15.422;2022-08-01T12:55:53;29.30;81.70
23869;DHT22;12115;47.128;15.422;2022-08-01T12:58:32;29.30;80.40
23869;DHT22;12115;47.128;15.422;2022-08-01T13:01:08;29.10;77.60
23869;DHT22;12115;47.128;15.422;2022-08-01T13:03:36;29.20;80.30
23869;DHT22;12115;47.128;15.422;2022-08-01T13:06:14;29.40;79.60
23869;DHT22;12115;47.128;15.422;2022-08-01T13:08:44;29.60;81.20
23869;DHT22;12115;47.128;15.422;2022-08-01T13:11:13;29.70;77.80
23869;DHT22;12115;47.128;15.422;2022-08-01T13:13:47;29.60;77.30
23869;DHT22;12115;47.128;15.422;2022-08-01T13:16:21;29.60;77.00
23869;DHT22;12115;47.128;15.422;2022-08-01T13:19:00;29.40;78.20
23869;DHT22;12115;47.128;15.422;2022-08-01T13:21:31;29.40;78.70
23869;DHT22;12115;47.128;15.422;2022-08-01T13:24:26;29.30;80.30
23869;DHT22;12115;47.128;15.422;2022-08-01T13:27:00;29.30;78.30
23869;DHT22;12115;47.128;15.422;2022-08-01T13:29:32;29.20;78.50
23869;DHT22;12115;47.128;15.422;2022-08-01T13:32:20;29.20;79.30
23869;DHT22;12115;47.128;15.422;2022-08-01T13:35:22;29.30;81.10
23869;DHT22;12115;47.128;15.422;2022-08-01T13:37:49;29.30;79.00
23869;DHT22;12115;47.128;15.422;2022-08-01T13:40:25;29.20;81.60
23869;DHT22;12115;47.128;15.422;2022-08-01T13:42:53;29.20;80.00
23869;DHT22;12115;47.128;15.422;2022-08-01T13:45:22;29.20;74.90
23869;DHT22;12115;47.128;15.422;2022-08-01T13:47:52;29.30;77.20
23869;DHT22;12115;47.128;15.422;2022-08-01T13:50:38;29.30;76.70
23869;DHT22;12115;47.128;15.422;2022-08-01T13:53:06;29.30;77.60
23869;DHT22;12115;47.128;15.422;2022-08-01T13:55:33;29.30;77.00
23869;DHT22;12115;47.128;15.422;2022-08-01T13:58:01;29.20;77.60
23869;DHT22;12115;47.128;15.422;2022-08-01T14:00:29;29.10;76.20
23869;DHT22;12115;47.128;15.422;2022-08-01T14:02:56;29.00;75.70
23869;DHT22;12115;47.128;15.422;2022-08-01T14:05:23;28.90;75.20
23869;DHT22;12115;47.128;15.422;2022-08-01T14:07:50;28.90;76.70
23869;DHT22;12115;47.128;15.422;2022-08-01T14:10:25;28.90;76.50
23869;DHT22;12115;47.128;15.422;2022-08-01T14:12:58;29.00;76.90
23869;DHT22;12115;47.128;15.422;2022-08-01T14:15:27;28.90;79.60
23869;DHT22;12115;47.128;15.422;2022-08-01T14:18:06;29.10;80.20
23869;DHT22;12115;47.128;15.422;2022-08-01T14:20:36;29.30;80.40
23869;DHT22;12115;47.128;15.422;2022-08-01T14:23:04;29.40;81.00
23869;DHT22;12115;47.128;15.422;2022-08-01T14:25:38;29.40;77.90
23869;DHT22;12115;47.128;15.422;2022-08-01T14:28:26;29.50;76.70
23869;DHT22;12115;47.128;15.422;2022-08-01T14:30:55;29.60;76.20
23869;DHT22;12115;47.128;15.422;2022-08-01T14:33:22;29.60;74.80
23869;DHT22;12115;47.128;15.422;2022-08-01T14:35:50;29.50;78.80
23869;DHT22;12115;47.128;15.422;2022-08-01T14:38:37;29.60;80.90
23869;DHT22;12115;47.128;15.422;2022-08-01T14:41:04;29.80;80.10
23869;DHT22;12115;47.128;15.422;2022-08-01T14:43:31;29.80;77.90
23869;DHT22;12115;47.128;15.422;2022-08-01T14:46:01;29.70;77.50
23869;DHT22;12115;47.128;15.422;2022-08-01T14:48:31;29.70;77.60
23869;DHT22;12115;47.128;15.422;2022-08-01T14:50:58;29.60;77.10
23869;DHT22;12115;47.128;15.422;2022-08-01T14:53:30;29.50;77.30
23869;DHT22;12115;47.128;15.422;2022-08-01T14:56:00;29.40;77.40
23869;DHT22;12115;47.128;15.422;2022-08-01T14:58:27;29.40;77.70
23869;DHT22;12115;47.128;15.422;2022-08-01T15:00:54;29.40;76.30
23869;DHT22;12115;47.128;15.422;2022-08-01T15:03:25;29.30;78.00
23869;DHT22;12115;47.128;15.422;2022-08-01T15:05:52;29.30;76.80
23869;DHT22;12115;47.128;15.422;2022-08-01T15:08:19;29.30;77.80
23869;DHT22;12115;47.128;15.422;2022-08-01T15:10:46;29.40;76.50
23869;DHT22;12115;47.128;15.422;2022-08-01T15:13:13;29.20;78.00
23869;DHT22;12115;47.128;15.422;2022-08-01T15:15:40;29.20;79.40
23869;DHT22;12115;47.128;15.422;2022-08-01T15:18:07;29.30;80.10
23869;DHT22;12115;47.128;15.422;2022-08-01T15:20:34;29.40;79.10
23869;DHT22;12115;47.128;15.422;2022-08-01T15:23:01;29.30;78.20
23869;DHT22;12115;47.128;15.422;2022-08-01T15:25:28;29.30;75.80
23869;DHT22;12115;47.128;15.422;2022-08-01T15:28:08;29.30;74.50
23869;DHT22;12115;47.128;15.422;2022-08-01T15:30:36;29.30;71.90
23869;DHT22;12115;47.128;15.422;2022-08-01T15:33:04;29.30;74.00
23869;DHT22;12115;47.128;15.422;2022-08-01T15:35:31;29.30;74.20
23869;DHT22;12115;47.128;15.422;2022-08-01T15:37:59;29.20;74.40
23869;DHT22;12115;47.128;15.422;2022-08-01T15:40:26;29.20;75.50
23869;DHT22;12115;47.128;15.422;2022-08-01T15:42:58;28.80;78.70
23869;DHT22;12115;47.128;15.422;2022-08-01T15:45:25;28.60;79.90
23869;DHT22;12115;47.128;15.422;2022-08-01T15:48:13;28.50;80.30
23869;DHT22;12115;47.128;15.422;2022-08-01T15:50:40;28.40;82.40
23869;DHT22;12115;47.128;15.422;2022-08-01T15:53:07;28.40;84.70
23869;DHT22;12115;47.128;15.422;2022-08-01T15:55:38;28.40;85.00
23869;DHT22;12115;47.128;15.422;2022-08-01T15:58:05;28.50;83.80
23869;DHT22;12115;47.128;15.422;2022-08-01T16:00:33;28.40;81.50
23869;DHT22;12115;47.128;15.422;2022-08-01T16:03:06;28.30;81.90
23869;DHT22;12115;47.128;15.422;2022-08-01T16:05:33;28.30;83.30
23869;DHT22;12115;47.128;15.422;2022-08-01T16:08:10;28.30;83.50
23869;DHT22;12115;47.128;15.422;2022-08-01T16:10:37;28.30;82.10
23869;DHT22;12115;47.128;15.422;2022-08-01T16:13:04;28.20;81.40
23869;DHT22;12115;47.128;15.422;2022-08-01T16:15:34;28.30;82.00
23869;DHT22;12115;47.128;15.422;2022-08-01T16:18:07;28.20;84.10
23869;DHT22;12115;47.128;15.422;2022-08-01T16:20:34;28.20;82.10
23869;DHT22;12115;47.128;15.422;2022-08-01T16:23:06;28.20;84.40
23869;DHT22;12115;47.128;15.422;2022-08-01T16:25:33;28.20;84.50